sensor_id;sensor_type;location;lat;lon;timestamp;temperature;humidity
32965;DHT22;19317;48.226;11.686;2023-07-24T00:04:03;21.40;99.90
32965;DHT22;19317;48.226;11.686;2023-07-24T00:08:53;21.30;99.90
32965;DHT22;19317;48.226;11.686;2023-07-24T00:13:44;21.30;99.90
32965;DHT22;19317;48.226;11.686;2023-07-24T00:18:35;21.10;99.90
32965;DHT22;19317;48.226;11.686;2023-07-24T00:23:25;21.10;99.90
32965;DHT22;19317;48.226;11.686;2023-07-24T00:28:16;21.00;99.90
32965;DHT22;19317;48.226;11.686;2023-07-24T00:33:06;20.90;99.90
32965;DHT22;19317;48.226;11.686;2023-07-24T00:37:57;21.10;99.90
32965;DHT22;19317;48.226;11.686;2023-07-24T00:42:48;20.80;99.90
32965;DHT22;19317;48.226;11.686;2023-07-24T00:47:38;21.00;99.90
32965;DHT22;19317;48.226;11.686;2023-07-24T00:52:29;21.10;99.90
32965;DHT22;19317;48.226;11.686;2023-07-24T00:57:19;20.90;99.90
32965;DHT22;19317;48.226;11.686;2023-07-24T01:02:10;20.80;99.90
32965;DHT22;19317;48.226;11.686;2023-07-24T01:07:01;20.80;99.90
32965;DHT22;19317;48.226;11.686;2023-07-24T01:12:10;20.80;99.90
32965;DHT22;19317;48.226;11.686;2023-07-24T01:17:05;20.70;99.90
32965;DHT22;19317;48.226;11.686;2023-07-24T01:22:15;20.60;99.90
32965;DHT22;19317;48.226;11.686;2023-07-24T01:27:07;20.50;99.90
32965;DHT22;19317;48.226;11.686;2023-07-24T01:31:57;20.50;99.90
32965;DHT22;19317;48.226;11.686;2023-07-24T01:36:49;20.30;99.90
32965;DHT22;19317;48.226;11.686;2023-07-24T01:41:40;20.30;99.90
32965;DHT22;19317;48.226;11.686;2023-07-24T01:46:30;20.40;99.90
32965;DHT22;19317;48.226;11.686;2023-07-24T01:51:21;20.40;99.90
32965;DHT22;19317;48.226;11.686;2023-07-24T01:56:11;20.00;99.90
32965;DHT22;19317;48.226;11.686;2023-07-24T02:01:02;20.00;99.90
32965;DHT22;19317;48.226;11.686;2023-07-24T02:05:52;20.10;99.90
32965;DHT22;19317;48.226;11.686;2023-07-24T02:10:43;19.80;99.90
32965;DHT22;19317;48.226;11.686;2023-07-24T02:15:33;18.90;99.90
32965;DHT22;19317;48.226;11.686;2023-07-24T02:20:23;19.10;99.90
32965;DHT22;19317;48.226;11.686;2023-07-24T02:25:14;19.80;99.90
32965;DHT22;19317;48.226;11.686;2023-07-24T02:30:05;19.80;99.90
32965;DHT22;19317;48.226;11.686;2023-07-24T02:34:55;19.20;99.90
32965;DHT22;19317;48.226;11.686;2023-07-24T02:39:46;18.10;99.90
32965;DHT22;19317;48.226;11.686;2023-07-24T02:44:37;18.40;99.90
32965;DHT22;19317;48.226;11.686;2023-07-24T02:49:28;18.80;99.90
32965;DHT22;19317;48.226;11.686;2023-07-24T02:54:19;19.00;99.90
32965;DHT22;19317;48.226;11.686;2023-07-24T02:59:09;19.50;99.90
32965;DHT22;19317;48.226;11.686;2023-07-24T03:04:00;19.40;99.90
32965;DHT22;19317;48.226;11.686;2023-07-24T03:08:50;19.50;99.90
32965;DHT22;19317;48.226;11.686;2023-07-24T03:13:41;19.20;99.90
32965;DHT22;19317;48.226;11.686;2023-07-24T03:18:31;18.20;99.90
32965;DHT22;19317;48.226;11.686;2023-07-24T03:23:22;18.40;99.90
32965;DHT22;19317;48.226;11.686;2023-07-24T03:28:12;18.40;99.90
32965;DHT22;19317;48.226;11.686;2023-07-24T03:33:04;18.00;99.90
32965;DHT22;19317;48.226;11.686;2023-07-24T03:37:54;17.80;99.90
32965;DHT22;19317;48.226;11.686;2023-07-24T03:42:45;17.80;99.90
32965;DHT22;19317;48.226;11.686;2023-07-24T03:47:35;18.10;99.90
32965;DHT22;19317;48.226;11.686;2023-07-24T03:52:26;18.40;99.90
32965;DHT22;19317;48.226;11.686;2023-07-24T03:57:16;18.90;99.90
32965;DHT22;19317;48.226;11.686;2023-07-24T04:02:07;19.00;99.90
32965;DHT22;19317;48.226;11.686;2023-07-24T04:06:57;19.00;99.90
32965;DHT22;19317;48.226;11.686;2023-07-24T04:11:48;18.80;99.90
32965;DHT22;19317;48.226;11.686;2023-07-24T04:16:38;18.90;99.90
32965;DHT22;19317;48.226;11.686;2023-07-24T04:21:29;18.70;99.90
32965;DHT22;19317;48.226;11.686;2023-07-24T04:26:19;19.00;99.90
32965;DHT22;19317;48.226;11.686;2023-07-24T04:31:10;18.40;99.90
32965;DHT22;19317;48.226;11.686;2023-07-24T04:36:00;18.50;99.90
32965;DHT22;19317;48.226;11.686;2023-07-24T04:40:51;18.10;99.90
32965;DHT22;19317;48.226;11.686;2023-07-24T04:45:41;18.20;99.90
32965;DHT22;19317;48.226;11.686;2023-07-24T04:50:32;18.10;99.90
32965;DHT22;19317;48.226;11.686;2023-07-24T04:55:22;18.50;99.90
32965;DHT22;19317;48.226;11.686;2023-07-24T05:00:13;18.60;99.90
32965;DHT22;19317;48.226;11.686;2023-07-24T05:05:04;18.50;99.90
32965;DHT22;19317;48.226;11.686;2023-07-24T05:09:55;18.30;99.90
32965;DHT22;19317;48.226;11.686;2023-07-24T05:14:45;18.60;99.90
32965;DHT22;19317;48.226;11.686;2023-07-24T05:19:36;18.40;99.90
32965;DHT22;19317;48.226;11.686;2023-07-24T05:24:26;18.40;99.90
32965;DHT22;19317;48.226;11.686;2023-07-24T05:29:16;18.40;99.90
32965;DHT22;19317;48.226;11.686;2023-07-24T05:34:07;18.40;99.90
32965;DHT22;19317;48.226;11.686;2023-07-24T05:38:57;18.40;99.90
32965;DHT22;19317;48.226;11.686;2023-07-24T05:43:48;18.50;99.90
32965;DHT22;19317;48.226;11.686;2023-07-24T05:48:38;18.60;99.90
32965;DHT22;19317;48.226;11.686;2023-07-24T05:53:29;18.60;99.90
32965;DHT22;19317;48.226;11.686;2023-07-24T05:58:19;18.80;99.90
32965;DHT22;19317;48.226;11.686;2023-07-24T06:03:10;19.00;99.90
32965;DHT22;19317;48.226;11.686;2023-07-24T06:08:00;19.10;99.90
32965;DHT22;19317;48.226;11.686;2023-07-24T06:12:50;19.40;99.90
32965;DHT22;19317;48.226;11.686;2023-07-24T06:17:41;19.60;99.90
32965;DHT22;19317;48.226;11.686;2023-07-24T06:22:31;20.00;99.90
32965;DHT22;19317;48.226;11.686;2023-07-24T06:27:22;20.20;99.90
32965;DHT22;19317;48.226;11.686;2023-07-24T06:32:12;20.30;99.90
32965;DHT22;19317;48.226;11.686;2023-07-24T06:37:03;20.40;99.90
32965;DHT22;19317;48.226;11.686;2023-07-24T06:41:54;20.50;99.90
32965;DHT22;19317;48.226;11.686;2023-07-24T06:46:45;20.80;99.90
32965;DHT22;19317;48.226;11.686;2023-07-24T06:51:35;21.10;99.90
32965;DHT22;19317;48.226;11.686;2023-07-24T06:56:25;21.20;99.90
32965;DHT22;19317;48.226;11.686;2023-07-24T07:01:16;21.30;99.90
32965;DHT22;19317;48.226;11.686;2023-07-24T07:06:06;21.50;99.90
32965;DHT22;19317;48.226;11.686;2023-07-24T07:10:58;21.90;99.90
32965;DHT22;19317;48.226;11.686;2023-07-24T07:15:49;22.10;99.90
32965;DHT22;19317;48.226;11.686;2023-07-24T07:20:48;22.50;99.90
32965;DHT22;19317;48.226;11.686;2023-07-24T07:25:39;22.50;99.90
32965;DHT22;19317;48.226;11.686;2023-07-24T07:30:29;22.50;99.90
32965;DHT22;19317;48.226;11.686;2023-07-24T07:35:20;22.50;99.90
32965;DHT22;19317;48.226;11.686;2023-07-24T07:40:10;22.50;99.90
32965;DHT22;19317;48.226;11.686;2023-07-24T07:45:01;22.50;99.90
32965;DHT22;19317;48.226;11.686;2023-07-24T07:49:51;22.30;99.90
32965;DHT22;19317;48.226;11.686;2023-07-24T07:54:46;21.40;99.90
32965;DHT22;19317;48.226;11.686;2023-07-24T07:59:36;20.90;99.90
32965;DHT22;19317;48.226;11.686;2023-07-24T08:04:27;20.60;99.90
32965;DHT22;19317;48.226;11.686;2023-07-24T08:09:17;20.50;99.90
32965;DHT22;19317;48.226;11.686;2023-07-24T08:14:07;20.30;99.90
32965;DHT22;19317;48.226;11.686;2023-07-24T08:18:58;20.20;99.90
32965;DHT22;19317;48.226;11.686;2023-07-24T08:23:48;20.20;99.90
32965;DHT22;19317;48.226;11.686;2023-07-24T08:28:39;20.40;99.90
32965;DHT22;19317;48.226;11.686;2023-07-24T08:33:29;20.50;99.90
32965;DHT22;19317;48.226;11.686;2023-07-24T08:38:20;20.40;99.90
32965;DHT22;19317;48.226;11.686;2023-07-24T08:43:12;20.40;99.90
32965;DHT22;19317;48.226;11.686;2023-07-24T08:48:04;20.40;99.90
32965;DHT22;19317;48.226;11.686;2023-07-24T08:52:54;20.40;99.90
32965;DHT22;19317;48.226;11.686;2023-07-24T08:57:46;20.50;99.90
32965;DHT22;19317;48.226;11.686;2023-07-24T09:02:36;20.60;99.90
32965;DHT22;19317;48.226;11.686;2023-07-24T09:07:27;21.00;99.90
32965;DHT22;19317;48.226;11.686;2023-07-24T09:12:17;21.10;99.90
32965;DHT22;19317;48.226;11.686;2023-07-24T09:17:09;21.10;99.90
32965;DHT22;19317;48.226;11.686;2023-07-24T09:22:13;21.20;99.90
32965;DHT22;19317;48.226;11.686;2023-07-24T09:27:05;21.00;99.90
32965;DHT22;19317;48.226;11.686;2023-07-24T09:31:56;20.90;99.90
32965;DHT22;19317;48.226;11.686;2023-07-24T09:36:46;20.80;99.90
32965;DHT22;19317;48.226;11.686;2023-07-24T09:41:38;20.80;99.90
32965;DHT22;19317;48.226;11.686;2023-07-24T09:46:29;21.00;99.90
32965;DHT22;19317;48.226;11.686;2023-07-24T09:51:20;21.10;99.90
32965;DHT22;19317;48.226;11.686;2023-07-24T09:56:11;21.40;99.90
32965;DHT22;19317;48.226;11.686;2023-07-24T10:01:07;21.90;99.90
32965;DHT22;19317;48.226;11.686;2023-07-24T10:05:57;22.30;99.90
32965;DHT22;19317;48.226;11.686;2023-07-24T10:10:48;22.70;99.90
32965;DHT22;19317;48.226;11.686;2023-07-24T10:15:40;22.80;99.90
32965;DHT22;19317;48.226;11.686;2023-07-24T10:20:35;23.00;99.90
32965;DHT22;19317;48.226;11.686;2023-07-24T10:25:30;23.00;99.90
32965;DHT22;19317;48.226;11.686;2023-07-24T10:30:28;23.10;99.90
32965;DHT22;19317;48.226;11.686;2023-07-24T10:35:18;23.30;99.90
32965;DHT22;19317;48.226;11.686;2023-07-24T10:40:19;23.40;99.90
32965;DHT22;19317;48.226;11.686;2023-07-24T10:45:10;23.50;99.90
32965;DHT22;19317;48.226;11.686;2023-07-24T10:50:01;23.70;99.90
32965;DHT22;19317;48.226;11.686;2023-07-24T10:54:52;23.90;99.90
32965;DHT22;19317;48.226;11.686;2023-07-24T10:59:42;24.10;99.90
32965;DHT22;19317;48.226;11.686;2023-07-24T11:04:33;24.00;99.90
32965;DHT22;19317;48.226;11.686;2023-07-24T11:09:34;24.20;99.90
32965;DHT22;19317;48.226;11.686;2023-07-24T11:14:25;24.30;99.90
32965;DHT22;19317;48.226;11.686;2023-07-24T11:19:23;24.30;99.90
32965;DHT22;19317;48.226;11.686;2023-07-24T11:24:14;24.50;99.90
32965;DHT22;19317;48.226;11.686;2023-07-24T11:29:11;24.70;99.90
32965;DHT22;19317;48.226;11.686;2023-07-24T11:34:02;24.80;99.90
32965;DHT22;19317;48.226;11.686;2023-07-24T11:38:53;25.00;99.90
32965;DHT22;19317;48.226;11.686;2023-07-24T11:43:48;24.80;99.90
32965;DHT22;19317;48.226;11.686;2023-07-24T11:48:41;25.40;99.90
32965;DHT22;19317;48.226;11.686;2023-07-24T11:53:31;25.00;99.90
32965;DHT22;19317;48.226;11.686;2023-07-24T11:58:25;25.30;99.90
32965;DHT22;19317;48.226;11.686;2023-07-24T12:03:24;25.60;99.90
32965;DHT22;19317;48.226;11.686;2023-07-24T12:08:14;25.20;99.90
32965;DHT22;19317;48.226;11.686;2023-07-24T12:13:05;25.50;99.90
32965;DHT22;19317;48.226;11.686;2023-07-24T12:17:56;25.20;99.90
32965;DHT22;19317;48.226;11.686;2023-07-24T12:22:47;24.80;99.90
32965;DHT22;19317;48.226;11.686;2023-07-24T12:27:38;24.20;99.90
32965;DHT22;19317;48.226;11.686;2023-07-24T12:32:29;24.00;99.90
32965;DHT22;19317;48.226;11.686;2023-07-24T12:37:20;23.30;99.90
32965;DHT22;19317;48.226;11.686;2023-07-24T12:42:10;22.20;99.90
32965;DHT22;19317;48.226;11.686;2023-07-24T12:47:01;21.90;99.90
32965;DHT22;19317;48.226;11.686;2023-07-24T12:51:51;21.30;99.90
32965;DHT22;19317;48.226;11.686;2023-07-24T12:56:42;21.30;99.90
32965;DHT22;19317;48.226;11.686;2023-07-24T13:01:32;21.50;99.90
32965;DHT22;19317;48.226;11.686;2023-07-24T13:06:24;21.40;99.90
32965;DHT22;19317;48.226;11.686;2023-07-24T13:11:14;21.30;99.90
32965;DHT22;19317;48.226;11.686;2023-07-24T13:16:05;20.60;99.90
32965;DHT22;19317;48.226;11.686;2023-07-24T13:20:56;20.50;99.90
32965;DHT22;19317;48.226;11.686;2023-07-24T13:25:46;20.50;99.90
32965;DHT22;19317;48.226;11.686;2023-07-24T13:30:37;20.30;99.90
32965;DHT22;19317;48.226;11.686;2023-07-24T13:35:27;20.40;99.90
32965;DHT22;19317;48.226;11.686;2023-07-24T13:40:18;20.10;99.90
32965;DHT22;19317;48.226;11.686;2023-07-24T13:45:08;20.20;99.90
32965;DHT22;19317;48.226;11.686;2023-07-24T13:49:59;20.50;99.90
32965;DHT22;19317;48.226;11.686;2023-07-24T13:54:49;20.60;99.90
32965;DHT22;19317;48.226;11.686;2023-07-24T13:59:40;20.50;99.90
32965;DHT22;19317;48.226;11.686;2023-07-24T14:04:30;20.90;99.90
32965;DHT22;19317;48.226;11.686;2023-07-24T14:09:21;21.00;99.90
32965;DHT22;19317;48.226;11.686;2023-07-24T14:14:11;21.10;99.90
32965;DHT22;19317;48.226;11.686;2023-07-24T14:19:01;21.20;99.90
32965;DHT22;19317;48.226;11.686;2023-07-24T14:23:52;21.70;99.90
32965;DHT22;19317;48.226;11.686;2023-07-24T14:28:42;21.60;99.90
32965;DHT22;19317;48.226;11.686;2023-07-24T14:33:33;21.90;99.90
32965;DHT22;19317;48.226;11.686;2023-07-24T14:38:23;21.80;99.90
32965;DHT22;19317;48.226;11.686;2023-07-24T14:43:14;22.90;99.90
32965;DHT22;19317;48.226;11.686;2023-07-24T14:48:05;22.70;99.90
32965;DHT22;19317;48.226;11.686;2023-07-24T14:52:56;22.80;99.90
32965;DHT22;19317;48.226;11.686;2023-07-24T14:57:46;23.00;99.90
32965;DHT22;19317;48.226;11.686;2023-07-24T15:02:37;23.60;99.90
32965;DHT22;19317;48.226;11.686;2023-07-24T15:07:27;24.20;99.90
32965;DHT22;19317;48.226;11.686;2023-07-24T15:12:18;24.40;99.90
32965;DHT22;19317;48.226;11.686;2023-07-24T15:17:08;25.00;99.90
32965;DHT22;19317;48.226;11.686;2023-07-24T15:21:58;24.90;99.90
32965;DHT22;19317;48.226;11.686;2023-07-24T15:26:49;25.00;99.90
32965;DHT22;19317;48.226;11.686;2023-07-24T15:31:39;25.60;99.90
32965;DHT22;19317;48.226;11.686;2023-07-24T15:36:30;25.60;99.90
32965;DHT22;19317;48.226;11.686;2023-07-24T15:41:20;25.90;99.90
32965;DHT22;19317;48.226;11.686;2023-07-24T15:46:11;25.10;99.90
32965;DHT22;19317;48.226;11.686;2023-07-24T15:51:01;24.60;99.90
32965;DHT22;19317;48.226;11.686;2023-07-24T15:55:52;24.80;99.90
32965;DHT22;19317;48.226;11.686;2023-07-24T16:00:42;24.30;99.90
32965;DHT22;19317;48.226;11.686;2023-07-24T16:05:33;24.20;99.90
32965;DHT22;19317;48.226;11.686;2023-07-24T16:10:23;24.20;99.90
32965;DHT22;19317;48.226;11.686;2023-07-24T16:15:14;23.70;99.90
32965;DHT22;19317;48.226;11.686;2023-07-24T16:20:05;23.50;99.90
32965;DHT22;19317;48.226;11.686;2023-07-24T16:24:56;23.50;99.90
32965;DHT22;19317;48.226;11.686;2023-07-24T16:29:46;23.60;99.90
32965;DHT22;19317;48.226;11.686;2023-07-24T16:34:36;23.60;99.90
32965;DHT22;19317;48.226;11.686;2023-07-24T16:39:27;23.10;99.90
32965;DHT22;19317;48.226;11.686;2023-07-24T16:44:17;22.90;99.90
32965;DHT22;19317;48.226;11.686;2023-07-24T16:49:08;22.40;99.90
32965;DHT22;19317;48.226;11.686;2023-07-24T16:53:58;22.20;99.90
32965;DHT22;19317;48.226;11.686;2023-07-24T16:58:49;22.00;99.90
32965;DHT22;19317;48.226;11.686;2023-07-24T17:03:39;22.20;99.90
32965;DHT22;19317;48.226;11.686;2023-07-24T17:08:30;22.50;99.90
32965;DHT22;19317;48.226;11.686;2023-07-24T17:13:20;22.10;99.90
32965;DHT22;19317;48.226;11.686;2023-07-24T17:18:11;21.70;99.90
32965;DHT22;19317;48.226;11.686;2023-07-24T17:23:01;21.40;99.90
32965;DHT22;19317;48.226;11.686;2023-07-24T17:27:52;21.40;99.90
32965;DHT22;19317;48.226;11.686;2023-07-24T17:32:43;21.30;99.90
32965;DHT22;19317;48.226;11.686;2023-07-24T17:37:33;21.20;99.90
32965;DHT22;19317;48.226;11.686;2023-07-24T17:42:24;21.30;99.90
32965;DHT22;19317;48.226;11.686;2023-07-24T17:47:14;21.30;99.90
32965;DHT22;19317;48.226;11.686;2023-07-24T17:52:05;21.40;99.90
32965;DHT22;19317;48.226;11.686;2023-07-24T17:56:56;21.40;99.90
32965;DHT22;19317;48.226;11.686;2023-07-24T18:01:46;20.80;99.90
32965;DHT22;19317;48.226;11.686;2023-07-24T18:06:36;21.00;99.90
32965;DHT22;19317;48.226;11.686;2023-07-24T18:11:27;21.40;99.90
32965;DHT22;19317;48.226;11.686;2023-07-24T18:16:17;21.30;99.90
32965;DHT22;19317;48.226;11.686;2023-07-24T18:21:09;21.10;99.90
32965;DHT22;19317;48.226;11.686;2023-07-24T18:25:59;21.10;99.90
32965;DHT22;19317;48.226;11.686;2023-07-24T18:30:50;20.90;99.90
32965;DHT22;19317;48.226;11.686;2023-07-24T18:35:41;20.90;99.90
32965;DHT22;19317;48.226;11.686;2023-07-24T18:40:31;20.80;99.90
32965;DHT22;19317;48.226;11.686;2023-07-24T18:45:22;20.80;99.90
32965;DHT22;19317;48.226;11.686;2023-07-24T18:50:12;20.90;99.90
32965;DHT22;19317;48.226;11.686;2023-07-24T18:55:03;21.00;99.90
32965;DHT22;19317;48.226;11.686;2023-07-24T18:59:53;20.60;99.90
32965;DHT22;19317;48.226;11.686;2023-07-24T19:04:44;20.70;99.90
32965;DHT22;19317;48.226;11.686;2023-07-24T19:09:34;20.70;99.90
32965;DHT22;19317;48.226;11.686;2023-07-24T19:14:25;20.60;99.90
32965;DHT22;19317;48.226;11.686;2023-07-24T19:19:15;20.40;99.90
32965;DHT22;19317;48.226;11.686;2023-07-24T19:24:06;20.50;99.90
32965;DHT22;19317;48.226;11.686;2023-07-24T19:28:56;20.30;99.90
32965;DHT22;19317;48.226;11.686;2023-07-24T19:33:47;20.20;99.90
32965;DHT22;19317;48.226;11.686;2023-07-24T19:38:37;20.30;99.90
32965;DHT22;19317;48.226;11.686;2023-07-24T19:43:28;20.10;99.90
32965;DHT22;19317;48.226;11.686;2023-07-24T19:48:23;20.30;99.90
32965;DHT22;19317;48.226;11.686;2023-07-24T19:53:14;20.20;99.90
32965;DHT22;19317;48.226;11.686;2023-07-24T19:58:04;20.40;99.90
32965;DHT22;19317;48.226;11.686;2023-07-24T20:02:55;20.70;99.90
32965;DHT22;19317;48.226;11.686;2023-07-24T20:07:45;20.60;99.90
32965;DHT22;19317;48.226;11.686;2023-07-24T20:12:36;20.50;99.90
32965;DHT22;19317;48.226;11.686;2023-07-24T20:17:26;20.40;99.90
32965;DHT22;19317;48.226;11.686;2023-07-24T20:22:17;20.70;99.90
32965;DHT22;19317;48.226;11.686;2023-07-24T20:27:07;20.20;99.90
32965;DHT22;19317;48.226;11.686;2023-07-24T20:31:58;20.00;99.90
32965;DHT22;19317;48.226;11.686;2023-07-24T20:36:48;20.10;99.90
32965;DHT22;19317;48.226;11.686;2023-07-24T20:41:39;20.10;99.90
32965;DHT22;19317;48.226;11.686;2023-07-24T20:46:29;20.00;99.90
32965;DHT22;19317;48.226;11.686;2023-07-24T20:51:20;20.10;99.90
32965;DHT22;19317;48.226;11.686;2023-07-24T20:56:11;20.00;99.90
32965;DHT22;19317;48.226;11.686;2023-07-24T21:01:01;20.10;99.90
32965;DHT22;19317;48.226;11.686;2023-07-24T21:05:52;19.60;99.90
32965;DHT22;19317;48.226;11.686;2023-07-24T21:10:42;19.60;99.90
32965;DHT22;19317;48.226;11.686;2023-07-24T21:15:33;19.70;99.90
32965;DHT22;19317;48.226;11.686;2023-07-24T21:20:23;19.40;99.90
32965;DHT22;19317;48.226;11.686;2023-07-24T21:25:14;19.30;99.90
32965;DHT22;19317;48.226;11.686;2023-07-24T21:30:04;19.40;99.90
32965;DHT22;19317;48.226;11.686;2023-07-24T21:34:55;19.50;99.90
32965;DHT22;19317;48.226;11.686;2023-07-24T21:39:45;19.40;99.90
32965;DHT22;19317;48.226;11.686;2023-07-24T21:44:36;19.40;99.90
32965;DHT22;19317;48.226;11.686;2023-07-24T21:49:26;19.40;99.90
32965;DHT22;19317;48.226;11.686;2023-07-24T21:54:17;19.60;99.90
32965;DHT22;19317;48.226;11.686;2023-07-24T21:59:07;19.40;99.90
32965;DHT22;19317;48.226;11.686;2023-07-24T22:03:58;19.40;99.90
32965;DHT22;19317;48.226;11.686;2023-07-24T22:08:48;19.30;99.90
32965;DHT22;19317;48.226;11.686;2023-07-24T22:13:39;19.40;99.90
32965;DHT22;19317;48.226;11.686;2023-07-24T22:18:30;19.20;99.90
32965;DHT22;19317;48.226;11.686;2023-07-24T22:23:20;19.20;99.90
32965;DHT22;19317;48.226;11.686;2023-07-24T22:28:11;19.20;99.90
32965;DHT22;19317;48.226;11.686;2023-07-24T22:33:01;19.20;99.90
32965;DHT22;19317;48.226;11.686;2023-07-24T22:37:52;19.00;99.90
32965;DHT22;19317;48.226;11.686;2023-07-24T22:42:42;19.00;99.90
32965;DHT22;19317;48.226;11.686;2023-07-24T22:47:33;19.10;99.90
32965;DHT22;19317;48.226;11.686;2023-07-24T22:52:23;19.00;99.90
32965;DHT22;19317;48.226;11.686;2023-07-24T22:57:13;19.10;99.90
32965;DHT22;19317;48.226;11.686;2023-07-24T23:02:04;19.10;99.90
32965;DHT22;19317;48.226;11.686;2023-07-24T23:06:54;19.20;99.90
32965;DHT22;19317;48.226;11.686;2023-07-24T23:11:45;19.10;99.90
32965;DHT22;19317;48.226;11.686;2023-07-24T23:16:35;19.10;99.90
32965;DHT22;19317;48.226;11.686;2023-07-24T23:21:26;19.10;99.90
32965;DHT22;19317;48.226;11.686;2023-07-24T23:26:16;19.00;99.90
32965;DHT22;19317;48.226;11.686;2023-07-24T23:31:07;19.20;99.90
32965;DHT22;19317;48.226;11.686;2023-07-24T23:35:57;19.20;99.90
32965;DHT22;19317;48.226;11.686;2023-07-24T23:41:02;18.80;99.90
32965;DHT22;19317;48.226;11.686;2023-07-24T23:45:53;18.70;99.90
32965;DHT22;19317;48.226;11.686;2023-07-24T23:50:43;18.70;99.90
32965;DHT22;19317;48.226;11.686;2023-07-24T23:55:34;18.80;99.90
